sensor_id;sensor_type;location;lat;lon;timestamp;P1;durP1;ratioP1;P2;durP2;ratioP2
54368;SDS011;40266;52.434;17.056;2023-08-06T00:00:48;11.70;;;5.10;;
54368;SDS011;40266;52.434;17.056;2023-08-06T00:03:51;7.00;;;4.70;;
54368;SDS011;40266;52.434;17.056;2023-08-06T00:06:34;8.90;;;5.00;;
54368;SDS011;40266;52.434;17.056;2023-08-06T00:09:16;11.30;;;6.00;;
54368;SDS011;40266;52.434;17.056;2023-08-06T00:11:59;11.30;;;6.60;;
54368;SDS011;40266;52.434;17.056;2023-08-06T00:14:42;8.20;;;5.00;;
54368;SDS011;40266;52.434;17.056;2023-08-06T00:17:25;7.60;;;4.70;;
54368;SDS011;40266;52.434;17.056;2023-08-06T00:20:09;10.40;;;5.50;;
54368;SDS011;40266;52.434;17.056;2023-08-06T00:22:52;8.30;;;4.90;;
54368;SDS011;40266;52.434;17.056;2023-08-06T00:25:35;9.70;;;5.50;;
54368;SDS011;40266;52.434;17.056;2023-08-06T00:28:19;8.20;;;5.80;;
54368;SDS011;40266;52.434;17.056;2023-08-06T00:31:02;8.80;;;5.90;;
54368;SDS011;40266;52.434;17.056;2023-08-06T00:33:45;9.70;;;5.70;;
54368;SDS011;40266;52.434;17.056;2023-08-06T00:36:27;8.40;;;5.50;;
54368;SDS011;40266;52.434;17.056;2023-08-06T00:39:10;10.20;;;5.90;;
54368;SDS011;40266;52.434;17.056;2023-08-06T00:41:53;10.60;;;6.30;;
54368;SDS011;40266;52.434;17.056;2023-08-06T00:44:37;12.80;;;6.00;;
54368;SDS011;40266;52.434;17.056;2023-08-06T00:47:22;10.00;;;5.50;;
54368;SDS011;40266;52.434;17.056;2023-08-06T00:50:06;12.50;;;5.90;;
54368;SDS011;40266;52.434;17.056;2023-08-06T00:52:50;10.30;;;5.30;;
54368;SDS011;40266;52.434;17.056;2023-08-06T00:55:33;11.00;;;5.80;;
54368;SDS011;40266;52.434;17.056;2023-08-06T00:58:17;10.10;;;5.90;;
54368;SDS011;40266;52.434;17.056;2023-08-06T01:01:01;8.90;;;5.30;;
54368;SDS011;40266;52.434;17.056;2023-08-06T01:03:44;11.30;;;6.40;;
54368;SDS011;40266;52.434;17.056;2023-08-06T01:06:35;9.10;;;5.80;;
54368;SDS011;40266;52.434;17.056;2023-08-06T01:12:37;10.80;;;5.70;;
54368;SDS011;40266;52.434;17.056;2023-08-06T01:15:33;9.70;;;5.20;;
54368;SDS011;40266;52.434;17.056;2023-08-06T01:18:23;8.50;;;5.50;;
54368;SDS011;40266;52.434;17.056;2023-08-06T01:21:06;13.00;;;6.70;;
54368;SDS011;40266;52.434;17.056;2023-08-06T01:23:49;8.10;;;5.10;;
54368;SDS011;40266;52.434;17.056;2023-08-06T01:26:33;13.50;;;5.40;;
54368;SDS011;40266;52.434;17.056;2023-08-06T01:32:08;8.60;;;4.60;;
54368;SDS011;40266;52.434;17.056;2023-08-06T01:34:54;8.40;;;4.50;;
54368;SDS011;40266;52.434;17.056;2023-08-06T01:37:38;7.90;;;5.20;;
54368;SDS011;40266;52.434;17.056;2023-08-06T01:40:21;6.10;;;4.50;;
54368;SDS011;40266;52.434;17.056;2023-08-06T01:43:04;9.40;;;4.30;;
54368;SDS011;40266;52.434;17.056;2023-08-06T01:45:48;5.30;;;3.80;;
54368;SDS011;40266;52.434;17.056;2023-08-06T01:48:31;8.00;;;4.10;;
54368;SDS011;40266;52.434;17.056;2023-08-06T01:51:13;5.30;;;3.80;;
54368;SDS011;40266;52.434;17.056;2023-08-06T01:53:57;6.50;;;3.90;;
54368;SDS011;40266;52.434;17.056;2023-08-06T01:56:39;5.50;;;4.20;;
54368;SDS011;40266;52.434;17.056;2023-08-06T01:59:22;5.10;;;3.80;;
54368;SDS011;40266;52.434;17.056;2023-08-06T02:02:05;6.60;;;4.10;;
54368;SDS011;40266;52.434;17.056;2023-08-06T02:04:48;7.00;;;3.90;;
54368;SDS011;40266;52.434;17.056;2023-08-06T02:07:31;6.20;;;3.80;;
54368;SDS011;40266;52.434;17.056;2023-08-06T02:10:14;7.00;;;3.60;;
54368;SDS011;40266;52.434;17.056;2023-08-06T02:12:57;8.00;;;3.30;;
54368;SDS011;40266;52.434;17.056;2023-08-06T02:15:44;6.00;;;3.70;;
54368;SDS011;40266;52.434;17.056;2023-08-06T02:18:29;5.60;;;3.50;;
54368;SDS011;40266;52.434;17.056;2023-08-06T02:21:12;4.00;;;3.00;;
54368;SDS011;40266;52.434;17.056;2023-08-06T02:23:55;7.80;;;3.20;;
54368;SDS011;40266;52.434;17.056;2023-08-06T02:26:38;5.20;;;2.80;;
54368;SDS011;40266;52.434;17.056;2023-08-06T02:29:21;3.90;;;3.40;;
54368;SDS011;40266;52.434;17.056;2023-08-06T02:32:04;3.80;;;2.70;;
54368;SDS011;40266;52.434;17.056;2023-08-06T02:34:48;4.50;;;2.90;;
54368;SDS011;40266;52.434;17.056;2023-08-06T02:37:33;10.30;;;3.60;;
54368;SDS011;40266;52.434;17.056;2023-08-06T02:40:16;4.50;;;2.70;;
54368;SDS011;40266;52.434;17.056;2023-08-06T02:43:00;5.90;;;3.20;;
54368;SDS011;40266;52.434;17.056;2023-08-06T02:45:46;2.90;;;2.60;;
54368;SDS011;40266;52.434;17.056;2023-08-06T02:48:29;4.40;;;2.90;;
54368;SDS011;40266;52.434;17.056;2023-08-06T02:51:12;4.10;;;2.60;;
54368;SDS011;40266;52.434;17.056;2023-08-06T02:53:55;4.70;;;3.40;;
54368;SDS011;40266;52.434;17.056;2023-08-06T02:56:38;4.10;;;2.90;;
54368;SDS011;40266;52.434;17.056;2023-08-06T02:59:27;6.50;;;3.10;;
54368;SDS011;40266;52.434;17.056;2023-08-06T03:02:18;3.10;;;2.80;;
54368;SDS011;40266;52.434;17.056;2023-08-06T03:05:08;6.10;;;3.00;;
54368;SDS011;40266;52.434;17.056;2023-08-06T03:07:54;3.20;;;2.90;;
54368;SDS011;40266;52.434;17.056;2023-08-06T03:10:40;4.60;;;3.20;;
54368;SDS011;40266;52.434;17.056;2023-08-06T03:13:25;4.40;;;2.90;;
54368;SDS011;40266;52.434;17.056;2023-08-06T03:16:08;3.70;;;3.00;;
54368;SDS011;40266;52.434;17.056;2023-08-06T03:18:52;2.50;;;2.30;;
54368;SDS011;40266;52.434;17.056;2023-08-06T03:21:36;4.30;;;2.60;;
54368;SDS011;40266;52.434;17.056;2023-08-06T03:24:19;2.90;;;2.60;;
54368;SDS011;40266;52.434;17.056;2023-08-06T03:27:02;4.10;;;2.80;;
54368;SDS011;40266;52.434;17.056;2023-08-06T03:29:48;3.00;;;2.60;;
54368;SDS011;40266;52.434;17.056;2023-08-06T03:32:32;2.50;;;2.00;;
54368;SDS011;40266;52.434;17.056;2023-08-06T03:35:16;2.60;;;2.40;;
54368;SDS011;40266;52.434;17.056;2023-08-06T03:37:59;3.80;;;2.30;;
54368;SDS011;40266;52.434;17.056;2023-08-06T03:40:42;3.10;;;2.70;;
54368;SDS011;40266;52.434;17.056;2023-08-06T03:43:26;6.80;;;3.10;;
54368;SDS011;40266;52.434;17.056;2023-08-06T03:46:10;2.50;;;2.30;;
54368;SDS011;40266;52.434;17.056;2023-08-06T03:48:52;3.60;;;2.90;;
54368;SDS011;40266;52.434;17.056;2023-08-06T03:51:35;2.60;;;2.20;;
54368;SDS011;40266;52.434;17.056;2023-08-06T03:54:18;4.30;;;2.50;;
54368;SDS011;40266;52.434;17.056;2023-08-06T03:57:01;4.70;;;2.50;;
54368;SDS011;40266;52.434;17.056;2023-08-06T03:59:44;2.30;;;2.00;;
54368;SDS011;40266;52.434;17.056;2023-08-06T04:02:38;5.40;;;2.50;;
54368;SDS011;40266;52.434;17.056;2023-08-06T04:05:21;3.60;;;2.30;;
54368;SDS011;40266;52.434;17.056;2023-08-06T04:08:04;4.00;;;2.10;;
54368;SDS011;40266;52.434;17.056;2023-08-06T04:10:50;3.50;;;2.10;;
54368;SDS011;40266;52.434;17.056;2023-08-06T04:13:34;5.90;;;2.60;;
54368;SDS011;40266;52.434;17.056;2023-08-06T04:16:18;2.90;;;2.60;;
54368;SDS011;40266;52.434;17.056;2023-08-06T04:19:02;4.30;;;2.10;;
54368;SDS011;40266;52.434;17.056;2023-08-06T04:21:45;2.80;;;2.30;;
54368;SDS011;40266;52.434;17.056;2023-08-06T04:24:28;2.30;;;2.10;;
54368;SDS011;40266;52.434;17.056;2023-08-06T04:27:12;4.00;;;2.10;;
54368;SDS011;40266;52.434;17.056;2023-08-06T04:29:57;2.80;;;2.00;;
54368;SDS011;40266;52.434;17.056;2023-08-06T04:32:40;3.00;;;1.90;;
54368;SDS011;40266;52.434;17.056;2023-08-06T04:35:25;2.70;;;1.90;;
54368;SDS011;40266;52.434;17.056;2023-08-06T04:38:08;4.00;;;2.00;;
54368;SDS011;40266;52.434;17.056;2023-08-06T04:40:52;2.50;;;2.30;;
54368;SDS011;40266;52.434;17.056;2023-08-06T04:43:36;2.10;;;1.50;;
54368;SDS011;40266;52.434;17.056;2023-08-06T04:46:19;2.50;;;2.00;;
54368;SDS011;40266;52.434;17.056;2023-08-06T04:49:02;1.50;;;1.40;;
54368;SDS011;40266;52.434;17.056;2023-08-06T04:51:45;2.90;;;1.90;;
54368;SDS011;40266;52.434;17.056;2023-08-06T04:54:28;2.70;;;1.80;;
54368;SDS011;40266;52.434;17.056;2023-08-06T04:57:10;2.20;;;1.70;;
54368;SDS011;40266;52.434;17.056;2023-08-06T04:59:53;1.80;;;1.70;;
54368;SDS011;40266;52.434;17.056;2023-08-06T05:02:36;2.10;;;1.60;;
54368;SDS011;40266;52.434;17.056;2023-08-06T05:05:21;1.70;;;1.60;;
54368;SDS011;40266;52.434;17.056;2023-08-06T05:08:04;1.80;;;1.70;;
54368;SDS011;40266;52.434;17.056;2023-08-06T05:10:47;3.00;;;1.70;;
54368;SDS011;40266;52.434;17.056;2023-08-06T05:13:30;1.90;;;1.80;;
54368;SDS011;40266;52.434;17.056;2023-08-06T05:16:13;1.50;;;1.40;;
54368;SDS011;40266;52.434;17.056;2023-08-06T05:18:56;5.60;;;2.00;;
54368;SDS011;40266;52.434;17.056;2023-08-06T05:21:38;2.10;;;1.50;;
54368;SDS011;40266;52.434;17.056;2023-08-06T05:24:21;3.40;;;2.10;;
54368;SDS011;40266;52.434;17.056;2023-08-06T05:27:04;3.10;;;1.90;;
54368;SDS011;40266;52.434;17.056;2023-08-06T05:29:48;1.40;;;1.30;;
54368;SDS011;40266;52.434;17.056;2023-08-06T05:32:30;3.20;;;1.20;;
54368;SDS011;40266;52.434;17.056;2023-08-06T05:35:13;1.80;;;1.30;;
54368;SDS011;40266;52.434;17.056;2023-08-06T05:37:57;1.30;;;1.20;;
54368;SDS011;40266;52.434;17.056;2023-08-06T05:40:40;12.30;;;3.40;;
54368;SDS011;40266;52.434;17.056;2023-08-06T05:43:23;1.30;;;0.90;;
54368;SDS011;40266;52.434;17.056;2023-08-06T05:46:05;1.30;;;1.20;;
54368;SDS011;40266;52.434;17.056;2023-08-06T05:48:49;1.30;;;0.90;;
54368;SDS011;40266;52.434;17.056;2023-08-06T05:51:33;1.10;;;1.00;;
54368;SDS011;40266;52.434;17.056;2023-08-06T05:54:16;0.60;;;0.60;;
54368;SDS011;40266;52.434;17.056;2023-08-06T05:56:59;1.60;;;0.90;;
54368;SDS011;40266;52.434;17.056;2023-08-06T05:59:42;0.60;;;0.50;;
54368;SDS011;40266;52.434;17.056;2023-08-06T06:02:25;0.60;;;0.60;;
54368;SDS011;40266;52.434;17.056;2023-08-06T06:05:08;0.80;;;0.70;;
54368;SDS011;40266;52.434;17.056;2023-08-06T06:07:51;0.60;;;0.60;;
54368;SDS011;40266;52.434;17.056;2023-08-06T06:10:34;0.70;;;0.70;;
54368;SDS011;40266;52.434;17.056;2023-08-06T06:13:18;1.30;;;1.00;;
54368;SDS011;40266;52.434;17.056;2023-08-06T06:16:00;0.80;;;0.70;;
54368;SDS011;40266;52.434;17.056;2023-08-06T06:18:43;1.90;;;0.90;;
54368;SDS011;40266;52.434;17.056;2023-08-06T06:21:26;0.90;;;0.70;;
54368;SDS011;40266;52.434;17.056;2023-08-06T06:24:09;0.80;;;0.50;;
54368;SDS011;40266;52.434;17.056;2023-08-06T06:26:52;1.40;;;0.80;;
54368;SDS011;40266;52.434;17.056;2023-08-06T06:29:35;0.70;;;0.70;;
54368;SDS011;40266;52.434;17.056;2023-08-06T06:32:18;0.80;;;0.70;;
54368;SDS011;40266;52.434;17.056;2023-08-06T06:35:01;0.50;;;0.50;;
54368;SDS011;40266;52.434;17.056;2023-08-06T06:37:43;3.30;;;0.70;;
54368;SDS011;40266;52.434;17.056;2023-08-06T06:40:26;0.50;;;0.50;;
54368;SDS011;40266;52.434;17.056;2023-08-06T06:43:09;1.30;;;0.60;;
54368;SDS011;40266;52.434;17.056;2023-08-06T06:45:53;1.90;;;0.80;;
54368;SDS011;40266;52.434;17.056;2023-08-06T06:48:36;0.80;;;0.60;;
54368;SDS011;40266;52.434;17.056;2023-08-06T06:51:19;1.20;;;0.70;;
54368;SDS011;40266;52.434;17.056;2023-08-06T06:54:02;0.70;;;0.50;;
54368;SDS011;40266;52.434;17.056;2023-08-06T06:56:45;1.20;;;1.10;;
54368;SDS011;40266;52.434;17.056;2023-08-06T06:59:28;0.70;;;0.70;;
54368;SDS011;40266;52.434;17.056;2023-08-06T07:02:11;1.10;;;0.40;;
54368;SDS011;40266;52.434;17.056;2023-08-06T07:04:54;0.80;;;0.50;;
54368;SDS011;40266;52.434;17.056;2023-08-06T07:07:37;1.80;;;0.60;;
54368;SDS011;40266;52.434;17.056;2023-08-06T07:10:20;0.50;;;0.50;;
54368;SDS011;40266;52.434;17.056;2023-08-06T07:13:03;0.50;;;0.50;;
54368;SDS011;40266;52.434;17.056;2023-08-06T07:15:46;0.70;;;0.70;;
54368;SDS011;40266;52.434;17.056;2023-08-06T07:18:28;0.40;;;0.40;;
54368;SDS011;40266;52.434;17.056;2023-08-06T07:21:11;2.00;;;0.30;;
54368;SDS011;40266;52.434;17.056;2023-08-06T07:23:54;0.30;;;0.30;;
54368;SDS011;40266;52.434;17.056;2023-08-06T07:26:37;0.70;;;0.60;;
54368;SDS011;40266;52.434;17.056;2023-08-06T07:29:20;1.20;;;0.60;;
54368;SDS011;40266;52.434;17.056;2023-08-06T07:32:06;0.40;;;0.40;;
54368;SDS011;40266;52.434;17.056;2023-08-06T07:34:50;0.70;;;0.70;;
54368;SDS011;40266;52.434;17.056;2023-08-06T07:37:35;1.90;;;0.80;;
54368;SDS011;40266;52.434;17.056;2023-08-06T07:40:18;0.50;;;0.30;;
54368;SDS011;40266;52.434;17.056;2023-08-06T07:43:01;0.60;;;0.60;;
54368;SDS011;40266;52.434;17.056;2023-08-06T07:45:44;0.60;;;0.60;;
54368;SDS011;40266;52.434;17.056;2023-08-06T07:48:27;1.30;;;0.70;;
54368;SDS011;40266;52.434;17.056;2023-08-06T07:51:10;0.60;;;0.60;;
54368;SDS011;40266;52.434;17.056;2023-08-06T07:53:53;1.00;;;0.60;;
54368;SDS011;40266;52.434;17.056;2023-08-06T07:56:36;0.50;;;0.50;;
54368;SDS011;40266;52.434;17.056;2023-08-06T07:59:20;0.50;;;0.40;;
54368;SDS011;40266;52.434;17.056;2023-08-06T08:02:03;0.80;;;0.80;;
54368;SDS011;40266;52.434;17.056;2023-08-06T08:04:47;0.90;;;0.50;;
54368;SDS011;40266;52.434;17.056;2023-08-06T08:07:30;0.60;;;0.50;;
54368;SDS011;40266;52.434;17.056;2023-08-06T08:10:13;0.60;;;0.60;;
54368;SDS011;40266;52.434;17.056;2023-08-06T08:12:56;0.60;;;0.60;;
54368;SDS011;40266;52.434;17.056;2023-08-06T08:15:39;1.70;;;0.60;;
54368;SDS011;40266;52.434;17.056;2023-08-06T08:18:22;0.70;;;0.40;;
54368;SDS011;40266;52.434;17.056;2023-08-06T08:21:06;0.60;;;0.60;;
54368;SDS011;40266;52.434;17.056;2023-08-06T08:23:48;0.80;;;0.40;;
54368;SDS011;40266;52.434;17.056;2023-08-06T08:26:31;1.10;;;0.50;;
54368;SDS011;40266;52.434;17.056;2023-08-06T08:29:14;0.20;;;0.20;;
54368;SDS011;40266;52.434;17.056;2023-08-06T08:31:57;0.50;;;0.50;;
54368;SDS011;40266;52.434;17.056;2023-08-06T08:34:40;4.40;;;0.60;;
54368;SDS011;40266;52.434;17.056;2023-08-06T08:37:23;2.00;;;0.40;;
54368;SDS011;40266;52.434;17.056;2023-08-06T08:40:07;2.50;;;0.50;;
54368;SDS011;40266;52.434;17.056;2023-08-06T08:42:51;0.40;;;0.40;;
54368;SDS011;40266;52.434;17.056;2023-08-06T08:45:34;1.90;;;0.60;;
54368;SDS011;40266;52.434;17.056;2023-08-06T08:48:21;0.30;;;0.30;;
54368;SDS011;40266;52.434;17.056;2023-08-06T08:51:05;0.40;;;0.40;;
54368;SDS011;40266;52.434;17.056;2023-08-06T08:53:49;4.40;;;0.50;;
54368;SDS011;40266;52.434;17.056;2023-08-06T08:56:33;0.50;;;0.50;;
54368;SDS011;40266;52.434;17.056;2023-08-06T08:59:16;0.60;;;0.50;;
54368;SDS011;40266;52.434;17.056;2023-08-06T09:02:00;0.40;;;0.40;;
54368;SDS011;40266;52.434;17.056;2023-08-06T09:04:44;1.00;;;0.90;;
54368;SDS011;40266;52.434;17.056;2023-08-06T09:07:27;0.40;;;0.40;;
54368;SDS011;40266;52.434;17.056;2023-08-06T09:10:15;0.40;;;0.30;;
54368;SDS011;40266;52.434;17.056;2023-08-06T09:13:00;3.10;;;0.60;;
54368;SDS011;40266;52.434;17.056;2023-08-06T09:15:44;1.10;;;0.60;;
54368;SDS011;40266;52.434;17.056;2023-08-06T09:18:31;0.80;;;0.60;;
54368;SDS011;40266;52.434;17.056;2023-08-06T09:21:14;1.40;;;0.30;;
54368;SDS011;40266;52.434;17.056;2023-08-06T09:23:59;0.20;;;0.20;;
54368;SDS011;40266;52.434;17.056;2023-08-06T09:26:43;0.40;;;0.40;;
54368;SDS011;40266;52.434;17.056;2023-08-06T09:29:27;0.30;;;0.30;;
54368;SDS011;40266;52.434;17.056;2023-08-06T09:32:15;0.30;;;0.20;;
54368;SDS011;40266;52.434;17.056;2023-08-06T09:34:58;0.70;;;0.40;;
54368;SDS011;40266;52.434;17.056;2023-08-06T09:37:41;0.40;;;0.40;;
54368;SDS011;40266;52.434;17.056;2023-08-06T09:40:24;0.30;;;0.30;;
54368;SDS011;40266;52.434;17.056;2023-08-06T09:43:09;0.70;;;0.60;;
54368;SDS011;40266;52.434;17.056;2023-08-06T09:45:54;1.00;;;0.60;;
54368;SDS011;40266;52.434;17.056;2023-08-06T09:48:37;0.30;;;0.30;;
54368;SDS011;40266;52.434;17.056;2023-08-06T09:51:21;0.50;;;0.50;;
54368;SDS011;40266;52.434;17.056;2023-08-06T09:54:03;0.90;;;0.60;;
54368;SDS011;40266;52.434;17.056;2023-08-06T09:57:08;1.20;;;0.70;;
54368;SDS011;40266;52.434;17.056;2023-08-06T09:59:51;0.60;;;0.50;;
54368;SDS011;40266;52.434;17.056;2023-08-06T10:02:39;0.30;;;0.30;;
54368;SDS011;40266;52.434;17.056;2023-08-06T10:05:22;0.30;;;0.30;;
54368;SDS011;40266;52.434;17.056;2023-08-06T10:08:06;0.50;;;0.40;;
54368;SDS011;40266;52.434;17.056;2023-08-06T10:10:49;0.70;;;0.50;;
54368;SDS011;40266;52.434;17.056;2023-08-06T10:13:36;0.40;;;0.40;;
54368;SDS011;40266;52.434;17.056;2023-08-06T10:16:21;1.50;;;1.40;;
54368;SDS011;40266;52.434;17.056;2023-08-06T10:19:04;0.50;;;0.50;;
54368;SDS011;40266;52.434;17.056;2023-08-06T10:24:54;0.60;;;0.50;;
54368;SDS011;40266;52.434;17.056;2023-08-06T10:27:52;0.40;;;0.30;;
54368;SDS011;40266;52.434;17.056;2023-08-06T10:30:46;0.70;;;0.40;;
54368;SDS011;40266;52.434;17.056;2023-08-06T10:33:43;0.50;;;0.20;;
54368;SDS011;40266;52.434;17.056;2023-08-06T10:36:29;2.80;;;0.50;;
54368;SDS011;40266;52.434;17.056;2023-08-06T10:39:13;0.40;;;0.40;;
54368;SDS011;40266;52.434;17.056;2023-08-06T10:42:22;1.40;;;0.40;;
54368;SDS011;40266;52.434;17.056;2023-08-06T10:45:13;0.30;;;0.20;;
54368;SDS011;40266;52.434;17.056;2023-08-06T10:47:57;1.40;;;0.40;;
54368;SDS011;40266;52.434;17.056;2023-08-06T10:50:40;1.40;;;0.90;;
54368;SDS011;40266;52.434;17.056;2023-08-06T10:53:25;1.40;;;0.60;;
54368;SDS011;40266;52.434;17.056;2023-08-06T10:58:57;0.70;;;0.40;;
54368;SDS011;40266;52.434;17.056;2023-08-06T11:01:42;1.40;;;0.20;;
54368;SDS011;40266;52.434;17.056;2023-08-06T11:04:25;3.10;;;0.40;;
54368;SDS011;40266;52.434;17.056;2023-08-06T11:07:13;3.20;;;0.40;;
54368;SDS011;40266;52.434;17.056;2023-08-06T11:10:03;1.10;;;0.80;;
54368;SDS011;40266;52.434;17.056;2023-08-06T11:12:46;2.70;;;0.70;;
54368;SDS011;40266;52.434;17.056;2023-08-06T11:15:30;2.00;;;0.40;;
54368;SDS011;40266;52.434;17.056;2023-08-06T11:18:13;2.20;;;0.70;;
54368;SDS011;40266;52.434;17.056;2023-08-06T11:20:58;2.00;;;0.80;;
54368;SDS011;40266;52.434;17.056;2023-08-06T11:23:42;3.40;;;0.80;;
54368;SDS011;40266;52.434;17.056;2023-08-06T11:26:25;5.40;;;0.90;;
54368;SDS011;40266;52.434;17.056;2023-08-06T11:29:10;11.70;;;1.60;;
54368;SDS011;40266;52.434;17.056;2023-08-06T11:31:53;4.10;;;0.60;;
54368;SDS011;40266;52.434;17.056;2023-08-06T11:34:36;4.60;;;0.70;;
54368;SDS011;40266;52.434;17.056;2023-08-06T11:37:20;4.30;;;0.80;;
54368;SDS011;40266;52.434;17.056;2023-08-06T11:40:07;0.80;;;0.40;;
54368;SDS011;40266;52.434;17.056;2023-08-06T11:42:52;2.80;;;1.10;;
54368;SDS011;40266;52.434;17.056;2023-08-06T11:45:35;1.50;;;1.30;;
54368;SDS011;40266;52.434;17.056;2023-08-06T11:48:18;1.50;;;0.60;;
54368;SDS011;40266;52.434;17.056;2023-08-06T11:51:01;0.90;;;0.50;;
54368;SDS011;40266;52.434;17.056;2023-08-06T11:53:51;1.10;;;0.80;;
54368;SDS011;40266;52.434;17.056;2023-08-06T11:56:36;3.50;;;0.80;;
54368;SDS011;40266;52.434;17.056;2023-08-06T11:59:19;2.20;;;1.10;;
54368;SDS011;40266;52.434;17.056;2023-08-06T12:02:07;2.80;;;1.00;;
54368;SDS011;40266;52.434;17.056;2023-08-06T12:05:00;4.00;;;1.40;;
54368;SDS011;40266;52.434;17.056;2023-08-06T12:07:48;1.40;;;1.20;;
54368;SDS011;40266;52.434;17.056;2023-08-06T12:10:32;5.70;;;2.40;;
54368;SDS011;40266;52.434;17.056;2023-08-06T12:13:15;3.10;;;1.60;;
54368;SDS011;40266;52.434;17.056;2023-08-06T12:15:58;1.90;;;0.80;;
54368;SDS011;40266;52.434;17.056;2023-08-06T12:18:40;0.40;;;0.40;;
54368;SDS011;40266;52.434;17.056;2023-08-06T12:21:23;1.30;;;0.70;;
54368;SDS011;40266;52.434;17.056;2023-08-06T12:24:06;2.30;;;0.80;;
54368;SDS011;40266;52.434;17.056;2023-08-06T12:26:51;2.60;;;0.50;;
54368;SDS011;40266;52.434;17.056;2023-08-06T12:29:34;1.70;;;0.70;;
54368;SDS011;40266;52.434;17.056;2023-08-06T12:32:18;3.70;;;0.50;;
54368;SDS011;40266;52.434;17.056;2023-08-06T12:35:01;1.50;;;0.60;;
54368;SDS011;40266;52.434;17.056;2023-08-06T12:37:44;1.90;;;0.40;;
54368;SDS011;40266;52.434;17.056;2023-08-06T12:40:28;0.60;;;0.20;;
54368;SDS011;40266;52.434;17.056;2023-08-06T12:43:20;0.70;;;0.30;;
54368;SDS011;40266;52.434;17.056;2023-08-06T12:46:03;0.50;;;0.30;;
54368;SDS011;40266;52.434;17.056;2023-08-06T12:48:47;1.90;;;0.40;;
54368;SDS011;40266;52.434;17.056;2023-08-06T12:51:31;0.40;;;0.40;;
54368;SDS011;40266;52.434;17.056;2023-08-06T12:54:16;2.00;;;0.90;;
54368;SDS011;40266;52.434;17.056;2023-08-06T12:57:00;0.30;;;0.30;;
54368;SDS011;40266;52.434;17.056;2023-08-06T12:59:43;0.80;;;0.50;;
54368;SDS011;40266;52.434;17.056;2023-08-06T13:02:26;0.70;;;0.40;;
54368;SDS011;40266;52.434;17.056;2023-08-06T13:05:12;1.20;;;0.30;;
54368;SDS011;40266;52.434;17.056;2023-08-06T13:07:55;0.60;;;0.30;;
54368;SDS011;40266;52.434;17.056;2023-08-06T13:10:38;0.70;;;0.10;;
54368;SDS011;40266;52.434;17.056;2023-08-06T13:13:21;0.40;;;0.30;;
54368;SDS011;40266;52.434;17.056;2023-08-06T13:16:04;0.80;;;0.60;;
54368;SDS011;40266;52.434;17.056;2023-08-06T13:18:47;1.10;;;0.30;;
54368;SDS011;40266;52.434;17.056;2023-08-06T13:21:33;0.50;;;0.40;;
54368;SDS011;40266;52.434;17.056;2023-08-06T13:24:18;1.30;;;0.70;;
54368;SDS011;40266;52.434;17.056;2023-08-06T13:27:02;0.20;;;0.20;;
54368;SDS011;40266;52.434;17.056;2023-08-06T13:29:45;0.40;;;0.30;;
54368;SDS011;40266;52.434;17.056;2023-08-06T13:32:28;0.90;;;0.40;;
54368;SDS011;40266;52.434;17.056;2023-08-06T13:35:11;0.10;;;0.10;;
54368;SDS011;40266;52.434;17.056;2023-08-06T13:37:54;0.30;;;0.10;;
54368;SDS011;40266;52.434;17.056;2023-08-06T13:40:37;2.00;;;0.60;;
54368;SDS011;40266;52.434;17.056;2023-08-06T13:43:20;0.50;;;0.50;;
54368;SDS011;40266;52.434;17.056;2023-08-06T13:46:03;0.30;;;0.20;;
54368;SDS011;40266;52.434;17.056;2023-08-06T13:48:46;1.60;;;0.50;;
54368;SDS011;40266;52.434;17.056;2023-08-06T13:51:33;0.40;;;0.40;;
54368;SDS011;40266;52.434;17.056;2023-08-06T13:54:18;0.60;;;0.20;;
54368;SDS011;40266;52.434;17.056;2023-08-06T13:57:03;0.50;;;0.30;;
54368;SDS011;40266;52.434;17.056;2023-08-06T13:59:45;1.30;;;0.20;;
54368;SDS011;40266;52.434;17.056;2023-08-06T14:02:29;0.80;;;0.40;;
54368;SDS011;40266;52.434;17.056;2023-08-06T14:05:12;0.50;;;0.20;;
54368;SDS011;40266;52.434;17.056;2023-08-06T14:07:55;0.10;;;0.10;;
54368;SDS011;40266;52.434;17.056;2023-08-06T14:10:38;1.30;;;0.40;;
54368;SDS011;40266;52.434;17.056;2023-08-06T14:13:21;0.70;;;0.10;;
54368;SDS011;40266;52.434;17.056;2023-08-06T14:16:05;0.20;;;0.20;;
54368;SDS011;40266;52.434;17.056;2023-08-06T14:18:48;0.70;;;0.30;;
54368;SDS011;40266;52.434;17.056;2023-08-06T14:21:31;0.80;;;0.20;;
54368;SDS011;40266;52.434;17.056;2023-08-06T14:24:13;0.20;;;0.20;;
54368;SDS011;40266;52.434;17.056;2023-08-06T14:26:56;1.00;;;0.40;;
54368;SDS011;40266;52.434;17.056;2023-08-06T14:29:39;0.20;;;0.20;;
54368;SDS011;40266;52.434;17.056;2023-08-06T14:32:22;1.50;;;0.30;;
54368;SDS011;40266;52.434;17.056;2023-08-06T14:35:05;3.10;;;0.70;;
54368;SDS011;40266;52.434;17.056;2023-08-06T14:37:49;0.40;;;0.30;;
54368;SDS011;40266;52.434;17.056;2023-08-06T14:40:32;0.40;;;0.40;;
54368;SDS011;40266;52.434;17.056;2023-08-06T14:43:20;0.80;;;0.40;;
54368;SDS011;40266;52.434;17.056;2023-08-06T14:46:03;0.50;;;0.20;;
54368;SDS011;40266;52.434;17.056;2023-08-06T14:48:46;0.60;;;0.60;;
54368;SDS011;40266;52.434;17.056;2023-08-06T14:51:28;0.30;;;0.30;;
54368;SDS011;40266;52.434;17.056;2023-08-06T14:54:11;1.50;;;0.50;;
54368;SDS011;40266;52.434;17.056;2023-08-06T14:56:54;0.90;;;0.70;;
54368;SDS011;40266;52.434;17.056;2023-08-06T14:59:38;0.30;;;0.30;;
54368;SDS011;40266;52.434;17.056;2023-08-06T15:02:22;0.50;;;0.30;;
54368;SDS011;40266;52.434;17.056;2023-08-06T15:05:05;0.30;;;0.20;;
54368;SDS011;40266;52.434;17.056;2023-08-06T15:07:50;0.40;;;0.40;;
54368;SDS011;40266;52.434;17.056;2023-08-06T15:10:35;0.30;;;0.30;;
54368;SDS011;40266;52.434;17.056;2023-08-06T15:13:18;0.50;;;0.30;;
54368;SDS011;40266;52.434;17.056;2023-08-06T15:16:01;0.10;;;0.10;;
54368;SDS011;40266;52.434;17.056;2023-08-06T15:18:44;0.20;;;0.10;;
54368;SDS011;40266;52.434;17.056;2023-08-06T15:21:27;0.30;;;0.30;;
54368;SDS011;40266;52.434;17.056;2023-08-06T15:24:10;1.20;;;0.50;;
54368;SDS011;40266;52.434;17.056;2023-08-06T15:26:54;2.20;;;0.50;;
54368;SDS011;40266;52.434;17.056;2023-08-06T15:29:37;0.60;;;0.50;;
54368;SDS011;40266;52.434;17.056;2023-08-06T15:32:20;1.00;;;0.30;;
54368;SDS011;40266;52.434;17.056;2023-08-06T15:35:05;0.20;;;0.20;;
54368;SDS011;40266;52.434;17.056;2023-08-06T15:37:49;1.90;;;0.20;;
54368;SDS011;40266;52.434;17.056;2023-08-06T15:40:32;1.40;;;0.40;;
54368;SDS011;40266;52.434;17.056;2023-08-06T15:43:14;2.70;;;0.70;;
54368;SDS011;40266;52.434;17.056;2023-08-06T15:45:57;0.80;;;0.60;;
54368;SDS011;40266;52.434;17.056;2023-08-06T15:48:41;0.40;;;0.40;;
54368;SDS011;40266;52.434;17.056;2023-08-06T15:51:24;1.10;;;0.50;;
54368;SDS011;40266;52.434;17.056;2023-08-06T15:54:09;1.30;;;0.70;;
54368;SDS011;40266;52.434;17.056;2023-08-06T15:56:52;2.10;;;0.40;;
54368;SDS011;40266;52.434;17.056;2023-08-06T15:59:37;2.60;;;0.80;;
54368;SDS011;40266;52.434;17.056;2023-08-06T16:02:21;0.60;;;0.60;;
54368;SDS011;40266;52.434;17.056;2023-08-06T16:05:04;0.60;;;0.50;;
54368;SDS011;40266;52.434;17.056;2023-08-06T16:07:51;1.40;;;0.60;;
54368;SDS011;40266;52.434;17.056;2023-08-06T16:10:34;1.70;;;0.60;;
54368;SDS011;40266;52.434;17.056;2023-08-06T16:13:17;1.90;;;0.80;;
54368;SDS011;40266;52.434;17.056;2023-08-06T16:16:00;5.20;;;1.30;;
54368;SDS011;40266;52.434;17.056;2023-08-06T16:18:43;1.10;;;0.70;;
54368;SDS011;40266;52.434;17.056;2023-08-06T16:21:26;1.10;;;0.60;;
54368;SDS011;40266;52.434;17.056;2023-08-06T16:24:09;0.70;;;0.50;;